DAL7525 KTUS-KPSP
Flight info
| Callsign | DAL7525 |
|---|---|
| Flight time | N/A |
| Altitude | 34000 |
| Route | TUS9 GBN KOFFA CURIV RDBUL1 |
| Aircraft | A320/M-SDE3FGHIRWY/LB1 |
Departure
| Time | N/A |
|---|---|
| Airport | Tucson International Airport (KTUS) |
Arrival
| Time | 2026-05-05 17:30 |
|---|---|
| Airport | Palm Springs International Airport (KPSP) |
| Time | Latitude | Longitude | Altitude | Speed | Heading |
|---|---|---|---|---|---|
| 2026-05-05 16:59 | 33.51032 | -113.52616 | 34019 ft | 375 kts | 274° |
| 2026-05-05 17:00 | 33.52648 | -113.58751 | 34009 ft | 376 kts | 274° |
| 2026-05-05 17:00 | 33.54206 | -113.64694 | 34010 ft | 376 kts | 274° |
| 2026-05-05 17:01 | 33.55769 | -113.70679 | 34013 ft | 377 kts | 274° |
| 2026-05-05 17:01 | 33.57339 | -113.76680 | 34015 ft | 377 kts | 274° |
| 2026-05-05 17:02 | 33.58904 | -113.82688 | 33988 ft | 377 kts | 274° |
| 2026-05-05 17:02 | 33.60464 | -113.88697 | 33967 ft | 378 kts | 274° |
| 2026-05-05 17:03 | 33.62024 | -113.94721 | 33949 ft | 378 kts | 274° |
| 2026-05-05 17:03 | 33.63586 | -114.00753 | 33924 ft | 378 kts | 274° |
| 2026-05-05 17:04 | 33.65139 | -114.06786 | 33920 ft | 378 kts | 274° |
| 2026-05-05 17:04 | 33.66695 | -114.12841 | 33929 ft | 380 kts | 275° |
| 2026-05-05 17:05 | 33.68261 | -114.18916 | 33927 ft | 381 kts | 275° |
| 2026-05-05 17:05 | 33.69817 | -114.24993 | 33923 ft | 381 kts | 275° |
| 2026-05-05 17:06 | 33.71362 | -114.31039 | 33926 ft | 381 kts | 275° |
| 2026-05-05 17:06 | 33.72917 | -114.37131 | 33922 ft | 381 kts | 275° |
| 2026-05-05 17:07 | 33.73695 | -114.40174 | 34036 ft | 383 kts | 277° |
| 2026-05-05 17:07 | 33.74481 | -114.43285 | 33892 ft | 394 kts | 278° |
| 2026-05-05 17:07 | 33.75276 | -114.46435 | 33544 ft | 390 kts | 278° |
| 2026-05-05 17:07 | 33.76066 | -114.49510 | 33276 ft | 379 kts | 278° |
| 2026-05-05 17:08 | 33.76837 | -114.52499 | 33013 ft | 371 kts | 278° |
| 2026-05-05 17:08 | 33.77606 | -114.55421 | 32667 ft | 365 kts | 279° |
| 2026-05-05 17:08 | 33.78461 | -114.58289 | 32166 ft | 364 kts | 281° |
| 2026-05-05 17:08 | 33.79377 | -114.61116 | 31669 ft | 362 kts | 282° |
| 2026-05-05 17:09 | 33.80323 | -114.63926 | 31187 ft | 361 kts | 283° |
| 2026-05-05 17:09 | 33.81268 | -114.66719 | 30709 ft | 360 kts | 283° |
| 2026-05-05 17:09 | 33.82186 | -114.69465 | 30241 ft | 358 kts | 282° |
| 2026-05-05 17:09 | 33.83100 | -114.72240 | 29745 ft | 356 kts | 282° |
| 2026-05-05 17:10 | 33.83998 | -114.74999 | 29273 ft | 352 kts | 283° |
| 2026-05-05 17:10 | 33.84878 | -114.77725 | 28832 ft | 348 kts | 283° |
| 2026-05-05 17:10 | 33.85745 | -114.80422 | 28398 ft | 344 kts | 283° |
| 2026-05-05 17:10 | 33.86601 | -114.83093 | 27979 ft | 340 kts | 283° |
| 2026-05-05 17:11 | 33.87447 | -114.85731 | 27550 ft | 336 kts | 284° |
| 2026-05-05 17:11 | 33.88284 | -114.88341 | 27129 ft | 333 kts | 284° |
| 2026-05-05 17:11 | 33.89116 | -114.90931 | 26695 ft | 330 kts | 285° |
| 2026-05-05 17:11 | 33.89946 | -114.93507 | 26255 ft | 329 kts | 285° |
| 2026-05-05 17:12 | 33.90769 | -114.96071 | 25810 ft | 329 kts | 285° |
| 2026-05-05 17:12 | 33.91591 | -114.98640 | 25361 ft | 328 kts | 286° |
| 2026-05-05 17:12 | 33.92409 | -115.01203 | 24917 ft | 327 kts | 287° |
| 2026-05-05 17:12 | 33.93224 | -115.03761 | 24446 ft | 328 kts | 287° |
| 2026-05-05 17:13 | 33.94042 | -115.06326 | 23984 ft | 328 kts | 288° |
| 2026-05-05 17:13 | 33.94838 | -115.08822 | 23531 ft | 329 kts | 288° |
| 2026-05-05 17:13 | 33.95435 | -115.11464 | 23001 ft | 326 kts | 275° |
| 2026-05-05 17:13 | 33.95510 | -115.14172 | 22556 ft | 325 kts | 263° |
| 2026-05-05 17:14 | 33.95137 | -115.16852 | 22121 ft | 326 kts | 257° |
| 2026-05-05 17:14 | 33.94699 | -115.19531 | 21671 ft | 325 kts | 258° |
| 2026-05-05 17:14 | 33.94265 | -115.22199 | 21223 ft | 324 kts | 258° |
| 2026-05-05 17:14 | 33.93836 | -115.24865 | 20768 ft | 323 kts | 258° |
| 2026-05-05 17:15 | 33.93407 | -115.27518 | 20337 ft | 322 kts | 258° |
| 2026-05-05 17:15 | 33.92984 | -115.30130 | 19903 ft | 322 kts | 258° |
| 2026-05-05 17:15 | 33.92695 | -115.31911 | 19606 ft | 322 kts | 258° |
| 2026-05-05 17:15 | 33.92124 | -115.35410 | 19022 ft | 321 kts | 258° |
| 2026-05-05 17:16 | 33.91693 | -115.38052 | 18581 ft | 322 kts | 258° |
| 2026-05-05 17:16 | 33.91259 | -115.40707 | 18128 ft | 323 kts | 258° |
| 2026-05-05 17:16 | 33.90823 | -115.43362 | 17672 ft | 322 kts | 258° |
| 2026-05-05 17:16 | 33.90537 | -115.45110 | 17378 ft | 321 kts | 258° |
| 2026-05-05 17:17 | 33.90105 | -115.47742 | 16935 ft | 320 kts | 258° |
| 2026-05-05 17:17 | 33.89673 | -115.50374 | 16499 ft | 320 kts | 258° |
| 2026-05-05 17:17 | 33.89242 | -115.52996 | 16065 ft | 319 kts | 259° |
| 2026-05-05 17:17 | 33.88809 | -115.55621 | 15624 ft | 319 kts | 258° |
| 2026-05-05 17:18 | 33.88376 | -115.58241 | 15185 ft | 319 kts | 259° |
| 2026-05-05 17:18 | 33.87952 | -115.60860 | 14749 ft | 319 kts | 261° |
| 2026-05-05 17:18 | 33.87836 | -115.63526 | 14313 ft | 319 kts | 270° |
| 2026-05-05 17:18 | 33.87844 | -115.66199 | 13903 ft | 319 kts | 270° |
| 2026-05-05 17:19 | 33.87850 | -115.68850 | 13507 ft | 316 kts | 270° |
| 2026-05-05 17:19 | 33.87853 | -115.71463 | 12985 ft | 307 kts | 270° |
| 2026-05-05 17:19 | 33.87852 | -115.73985 | 12563 ft | 294 kts | 270° |
| 2026-05-05 17:19 | 33.87849 | -115.76413 | 12163 ft | 289 kts | 270° |
| 2026-05-05 17:20 | 33.87845 | -115.78848 | 11766 ft | 290 kts | 270° |
| 2026-05-05 17:20 | 33.87842 | -115.81248 | 11365 ft | 283 kts | 270° |
| 2026-05-05 17:20 | 33.87841 | -115.83576 | 10990 ft | 282 kts | 270° |
| 2026-05-05 17:20 | 33.87839 | -115.85933 | 10604 ft | 282 kts | 270° |
| 2026-05-05 17:21 | 33.87834 | -115.88056 | 10259 ft | 279 kts | 269° |
| 2026-05-05 17:21 | 33.87825 | -115.90403 | 9874 ft | 279 kts | 270° |
| 2026-05-05 17:21 | 33.87820 | -115.92728 | 9464 ft | 278 kts | 270° |
| 2026-05-05 17:22 | 33.87118 | -115.97241 | 8784 ft | 275 kts | 245° |
| 2026-05-05 17:22 | 33.86142 | -115.99236 | 8607 ft | 278 kts | 239° |
| 2026-05-05 17:22 | 33.85122 | -116.01215 | 8417 ft | 278 kts | 239° |
| 2026-05-05 17:22 | 33.84108 | -116.03189 | 8215 ft | 275 kts | 239° |
| 2026-05-05 17:23 | 33.83128 | -116.05102 | 8085 ft | 263 kts | 239° |
| 2026-05-05 17:23 | 33.82187 | -116.06940 | 7967 ft | 255 kts | 239° |
| 2026-05-05 17:23 | 33.81270 | -116.08737 | 7957 ft | 256 kts | 239° |
| 2026-05-05 17:23 | 33.80343 | -116.10550 | 7957 ft | 254 kts | 240° |
| 2026-05-05 17:24 | 33.79412 | -116.12362 | 7855 ft | 255 kts | 239° |
| 2026-05-05 17:24 | 33.78486 | -116.14165 | 7604 ft | 253 kts | 240° |
| 2026-05-05 17:24 | 33.77562 | -116.15961 | 7351 ft | 252 kts | 239° |
| 2026-05-05 17:24 | 33.76641 | -116.17753 | 7064 ft | 252 kts | 240° |
| 2026-05-05 17:25 | 33.75723 | -116.19539 | 6759 ft | 250 kts | 240° |
| 2026-05-05 17:25 | 33.75118 | -116.20716 | 6565 ft | 250 kts | 239° |
| 2026-05-05 17:25 | 33.73900 | -116.23084 | 6111 ft | 248 kts | 239° |
| 2026-05-05 17:25 | 33.72997 | -116.24852 | 5612 ft | 251 kts | 243° |
| 2026-05-05 17:26 | 33.72403 | -116.26853 | 4953 ft | 258 kts | 262° |
| 2026-05-05 17:26 | 33.72259 | -116.28998 | 4526 ft | 258 kts | 267° |
| 2026-05-05 17:26 | 33.72141 | -116.31133 | 4195 ft | 254 kts | 267° |
| 2026-05-05 17:26 | 33.72019 | -116.33237 | 3885 ft | 250 kts | 268° |
| 2026-05-05 17:27 | 33.71916 | -116.35293 | 3577 ft | 245 kts | 272° |
| 2026-05-05 17:27 | 33.72294 | -116.37250 | 3270 ft | 240 kts | 295° |
| 2026-05-05 17:27 | 33.73035 | -116.39033 | 2955 ft | 237 kts | 296° |
| 2026-05-05 17:27 | 33.73765 | -116.40784 | 2643 ft | 232 kts | 296° |
| 2026-05-05 17:28 | 33.74506 | -116.42488 | 2335 ft | 229 kts | 303° |
| 2026-05-05 17:28 | 33.75594 | -116.43800 | 2056 ft | 217 kts | 320° |
| 2026-05-05 17:28 | 33.76744 | -116.44895 | 1779 ft | 204 kts | 321° |
| 2026-05-05 17:28 | 33.77831 | -116.45934 | 1516 ft | 196 kts | 322° |
| 2026-05-05 17:29 | 33.78880 | -116.46932 | 1290 ft | 186 kts | 322° |
| 2026-05-05 17:29 | 33.79859 | -116.47870 | 1016 ft | 172 kts | 322° |
| 2026-05-05 17:29 | 33.80749 | -116.48743 | 747 ft | 161 kts | 320° |
| 2026-05-05 17:29 | 33.81590 | -116.49539 | 511 ft | 150 kts | 326° |
| 2026-05-05 17:30 | 33.82401 | -116.50257 | 409 ft | 135 kts | 324° |
| 2026-05-05 17:30 | 33.83025 | -116.50812 | 434 ft | 87 kts | 323° |
| 2026-05-05 17:30 | 33.83323 | -116.51077 | 444 ft | 11 kts | 315° |
| 2026-05-05 17:30 | 33.83325 | -116.51132 | 445 ft | 6 kts | 265° |
| 2026-05-05 17:31 | 33.83298 | -116.51198 | 438 ft | 0 kts | 220° |
| 2026-05-05 17:32 | 33.83296 | -116.51200 | 440 ft | 2 kts | 220° |
| 2026-05-05 17:32 | 33.83243 | -116.51216 | 439 ft | 14 kts | 174° |
| 2026-05-05 17:33 | 33.83148 | -116.51140 | 431 ft | 16 kts | 144° |
| 2026-05-05 17:33 | 33.83057 | -116.51059 | 427 ft | 17 kts | 144° |
| 2026-05-05 17:33 | 33.82966 | -116.50979 | 428 ft | 15 kts | 144° |
| 2026-05-05 17:33 | 33.82886 | -116.50905 | 435 ft | 14 kts | 139° |
| 2026-05-05 17:34 | 33.82807 | -116.50826 | 425 ft | 15 kts | 143° |
| 2026-05-05 17:34 | 33.82723 | -116.50753 | 423 ft | 15 kts | 144° |
| 2026-05-05 17:34 | 33.82647 | -116.50688 | 421 ft | 13 kts | 156° |
| 2026-05-05 17:34 | 33.82567 | -116.50715 | 425 ft | 12 kts | 204° |
| 2026-05-05 17:35 | 33.82490 | -116.50724 | 421 ft | 12 kts | 168° |
| 2026-05-05 17:35 | 33.82430 | -116.50710 | 425 ft | 6 kts | 169° |
| 2026-05-05 17:35 | 33.82394 | -116.50701 | 424 ft | 4 kts | 169° |
| 2026-05-05 17:35 | 33.82384 | -116.50699 | 417 ft | 0 kts | 168° |